Time;durP1;ratioP1;P1;durP2;ratioP2;P2;SDS_P1;SDS_P2;PMS_P1;PMS_P2;Temp;Humidity;BMP_temperature;BMP_pressure;BME280_temperature;BME280_humidity;BME280_pressure;Samples;Min_cycle;Max_cycle;Signal;HPM_P1;HPM_P2
2023/01/19 00:01:40;;;;;;;;;;;1.80;99.90;;;;;;5060957;28;1589;-76
2023/01/19 00:04:08;;;;;;;;;;;1.90;99.90;;;;;;5063779;28;1457;-77
2023/01/19 00:06:38;;;;;;;;;;;2.00;99.90;;;;;;5062599;28;1539;-77
2023/01/19 00:09:06;;;;;;;;;;;2.00;99.90;;;;;;5063943;28;1156;-76
2023/01/19 00:11:34;;;;;;;;;;;1.90;99.90;;;;;;5061528;28;1985;-76
2023/01/19 00:14:02;;;;;;;;;;;2.00;99.90;;;;;;5052816;28;1153;-78
2023/01/19 00:16:30;;;;;;;;;;;1.90;99.90;;;;;;5063329;28;1545;-75
2023/01/19 00:18:58;;;;;;;;;;;1.90;99.90;;;;;;5065338;28;1143;-77
2023/01/19 00:21:26;;;;;;;;;;;1.90;99.90;;;;;;5064872;28;1497;-77
2023/01/19 00:23:55;;;;;;;;;;;2.10;99.90;;;;;;5067174;28;1255;-76
2023/01/19 00:26:22;;;;;;;;;;;1.90;99.90;;;;;;5072825;28;1289;-75
2023/01/19 00:28:52;;;;;;;;;;;2.00;99.90;;;;;;5063980;28;1245;-75
2023/01/19 00:31:20;;;;;;;;;;;2.10;99.90;;;;;;5061191;28;1975;-76
2023/01/19 00:33:51;;;;;;;;;;;2.20;99.90;;;;;;5062402;28;1524;-76
2023/01/19 00:36:19;;;;;;;;;;;2.10;99.90;;;;;;5065539;28;1438;-75
2023/01/19 00:38:47;;;;;;;;;;;2.20;99.90;;;;;;5062526;28;1028;-75
2023/01/19 00:41:16;;;;;;;;;;;2.20;99.90;;;;;;5065261;28;1447;-76
2023/01/19 00:43:42;;;;;;;;;;;2.20;99.90;;;;;;5065588;28;992;-76
2023/01/19 00:46:10;;;;;;;;;;;2.20;99.90;;;;;;5061910;28;1366;-76
2023/01/19 00:48:38;;;;;;;;;;;2.20;99.90;;;;;;5063660;28;1088;-76
2023/01/19 00:51:05;;;;;;;;;;;2.20;99.90;;;;;;5065749;28;1185;-76
2023/01/19 00:53:33;;;;;;;;;;;2.20;99.90;;;;;;5066565;28;1901;-76
2023/01/19 00:56:06;;;;;;;;;;;2.30;99.90;;;;;;5063386;28;1343;-76
2023/01/19 00:58:35;;;;;;;;;;;2.30;99.90;;;;;;5068020;28;1104;-76
2023/01/19 01:01:03;;;;;;;;;;;2.50;99.90;;;;;;5066175;28;1129;-76
2023/01/19 01:03:31;;;;;;;;;;;2.30;99.90;;;;;;5057193;28;1112;-74
2023/01/19 01:05:59;;;;;;;;;;;2.30;99.90;;;;;;5060620;28;1300;-75
2023/01/19 01:08:27;;;;;;;;;;;2.30;99.90;;;;;;5062890;28;1001;-74
2023/01/19 01:10:54;;;;;;;;;;;2.30;99.90;;;;;;5057642;28;1109;-74
2023/01/19 01:13:22;;;;;;;;;;;2.30;99.90;;;;;;5061331;28;1909;-74
2023/01/19 01:15:56;;;;;;;;;;;2.30;99.90;;;;;;5057037;28;1531;-75
2023/01/19 01:18:25;;;;;;;;;;;2.50;99.90;;;;;;5062930;28;1089;-76
2023/01/19 01:20:53;;;;;;;;;;;2.50;99.90;;;;;;5064553;28;1024;-76
2023/01/19 01:23:26;;;;;;;;;;;2.40;99.90;;;;;;5062367;28;1044;-77
2023/01/19 01:25:53;;;;;;;;;;;2.40;99.90;;;;;;5060074;28;1426;-76
2023/01/19 01:28:21;;;;;;;;;;;2.40;99.90;;;;;;5061269;28;1068;-76
2023/01/19 01:30:52;;;;;;;;;;;2.40;99.90;;;;;;5065942;28;1520;-75
2023/01/19 01:33:21;;;;;;;;;;;2.40;99.90;;;;;;5060440;28;1981;-76
2023/01/19 01:36:08;;;;;;;;;;;2.40;99.90;;;;;;5062105;28;1523;-76
2023/01/19 01:38:35;;;;;;;;;;;2.50;99.90;;;;;;5066150;28;1191;-76
2023/01/19 01:41:03;;;;;;;;;;;2.70;99.90;;;;;;5067742;28;1924;-75
2023/01/19 01:43:41;;;;;;;;;;;2.60;99.90;;;;;;5066589;28;1535;-75
2023/01/19 01:46:09;;;;;;;;;;;2.50;99.90;;;;;;5063237;28;1426;-75
2023/01/19 01:48:39;;;;;;;;;;;2.50;99.90;;;;;;5060010;28;1764;-75
2023/01/19 01:51:26;;;;;;;;;;;2.60;99.90;;;;;;5065318;28;2422;-75
2023/01/19 01:53:59;;;;;;;;;;;2.60;99.90;;;;;;5066555;28;1975;-75
2023/01/19 01:56:30;;;;;;;;;;;2.60;99.90;;;;;;5062574;28;1460;-75
2023/01/19 01:58:58;;;;;;;;;;;2.70;99.90;;;;;;5066467;28;1057;-75
2023/01/19 02:04:12;;;;;;;;;;;2.60;99.90;;;;;;5061617;28;1310;-76
2023/01/19 02:14:57;;;;;;;;;;;2.70;99.90;;;;;;5063390;28;1398;-75
2023/01/19 02:17:25;;;;;;;;;;;2.70;99.90;;;;;;5073036;28;972;-76
2023/01/19 02:19:54;;;;;;;;;;;2.70;99.90;;;;;;5063746;28;1025;-75
2023/01/19 02:22:24;;;;;;;;;;;2.70;99.90;;;;;;5066953;28;1092;-75
2023/01/19 02:24:53;;;;;;;;;;;2.60;99.90;;;;;;5068767;28;1342;-75
2023/01/19 02:27:21;;;;;;;;;;;2.70;99.90;;;;;;5065625;28;775;-75
2023/01/19 02:29:52;;;;;;;;;;;2.70;99.90;;;;;;5062722;28;1067;-76
2023/01/19 02:32:20;;;;;;;;;;;2.80;99.90;;;;;;5068328;28;1918;-76
2023/01/19 02:34:47;;;;;;;;;;;2.70;99.90;;;;;;5068354;28;1278;-77
2023/01/19 02:37:17;;;;;;;;;;;2.70;99.90;;;;;;5068950;28;1117;-74
2023/01/19 02:39:52;;;;;;;;;;;3.00;99.90;;;;;;5067334;28;1037;-75
2023/01/19 02:42:22;;;;;;;;;;;2.80;99.90;;;;;;5067899;28;1008;-75
2023/01/19 02:44:52;;;;;;;;;;;2.70;99.90;;;;;;5066706;28;1306;-75
2023/01/19 02:47:20;;;;;;;;;;;2.80;99.90;;;;;;5061543;28;1033;-75
2023/01/19 02:50:00;;;;;;;;;;;2.90;99.90;;;;;;5067820;28;1013;-75
2023/01/19 02:52:28;;;;;;;;;;;2.90;99.90;;;;;;5068182;28;1988;-75
2023/01/19 02:55:01;;;;;;;;;;;2.80;99.90;;;;;;5063898;28;1380;-75
2023/01/19 02:57:49;;;;;;;;;;;2.80;99.90;;;;;;5061836;28;1278;-75
2023/01/19 03:00:21;;;;;;;;;;;2.90;99.90;;;;;;5067978;28;1107;-75
2023/01/19 03:02:54;;;;;;;;;;;2.80;99.90;;;;;;5070522;28;1009;-76
2023/01/19 03:05:29;;;;;;;;;;;2.80;99.90;;;;;;5056919;28;1361;-76
2023/01/19 03:08:01;;;;;;;;;;;2.80;99.90;;;;;;5055832;28;1024;-75
2023/01/19 03:10:31;;;;;;;;;;;2.90;99.90;;;;;;5065441;28;1057;-75
2023/01/19 03:13:04;;;;;;;;;;;2.90;99.90;;;;;;5066275;28;2000;-75
2023/01/19 03:15:33;;;;;;;;;;;2.90;99.90;;;;;;5070354;28;1626;-75
2023/01/19 03:18:01;;;;;;;;;;;2.90;99.90;;;;;;5064768;28;1068;-75
2023/01/19 03:20:29;;;;;;;;;;;2.90;99.90;;;;;;5066215;28;1096;-75
2023/01/19 03:23:00;;;;;;;;;;;2.90;99.90;;;;;;5063349;28;1220;-77
2023/01/19 03:25:31;;;;;;;;;;;2.90;99.90;;;;;;5064823;28;1315;-75
2023/01/19 03:27:58;;;;;;;;;;;2.90;99.90;;;;;;5056082;28;1109;-75
2023/01/19 03:30:28;;;;;;;;;;;3.00;99.90;;;;;;5066318;28;1052;-76
2023/01/19 03:33:06;;;;;;;;;;;2.90;99.90;;;;;;5065495;28;1993;-77
2023/01/19 03:35:35;;;;;;;;;;;2.90;99.90;;;;;;5064438;28;1351;-76
2023/01/19 03:38:08;;;;;;;;;;;3.00;99.90;;;;;;5065974;28;1174;-75
2023/01/19 03:40:36;;;;;;;;;;;3.00;99.90;;;;;;5062765;28;1068;-75
2023/01/19 03:43:04;;;;;;;;;;;3.00;99.90;;;;;;5059349;28;1425;-75
2023/01/19 03:45:34;;;;;;;;;;;3.00;99.90;;;;;;5060655;28;1288;-76
2023/01/19 03:48:02;;;;;;;;;;;3.10;99.90;;;;;;5061186;28;993;-76
2023/01/19 03:50:30;;;;;;;;;;;3.10;99.90;;;;;;5062019;28;1051;-75
2023/01/19 03:53:02;;;;;;;;;;;3.10;99.90;;;;;;5066655;28;1914;-75
2023/01/19 03:55:30;;;;;;;;;;;3.10;99.90;;;;;;5065539;28;1350;-76
2023/01/19 03:57:59;;;;;;;;;;;3.00;99.90;;;;;;5064241;28;1459;-75
2023/01/19 04:00:27;;;;;;;;;;;3.00;99.90;;;;;;5068658;28;1135;-76
2023/01/19 04:02:57;;;;;;;;;;;2.90;99.90;;;;;;5078111;28;1203;-75
2023/01/19 04:05:25;;;;;;;;;;;3.00;99.90;;;;;;5070713;28;1649;-75
2023/01/19 04:07:53;;;;;;;;;;;3.00;99.90;;;;;;5065820;28;977;-77
2023/01/19 04:10:21;;;;;;;;;;;3.00;99.90;;;;;;5073488;28;1209;-75
2023/01/19 04:12:49;;;;;;;;;;;3.10;99.90;;;;;;5085130;28;1111;-76
2023/01/19 04:15:18;;;;;;;;;;;3.20;99.90;;;;;;5086155;28;1969;-77
2023/01/19 04:17:45;;;;;;;;;;;3.10;99.90;;;;;;5092581;28;1127;-77
2023/01/19 04:20:14;;;;;;;;;;;3.10;99.90;;;;;;5084296;28;1190;-77
2023/01/19 04:22:43;;;;;;;;;;;3.10;99.90;;;;;;5086323;28;1025;-77
2023/01/19 04:25:24;;;;;;;;;;;3.10;99.90;;;;;;5086459;28;1213;-76
2023/01/19 04:27:52;;;;;;;;;;;3.00;99.90;;;;;;5091116;28;1119;-77
2023/01/19 04:30:19;;;;;;;;;;;3.10;99.90;;;;;;5087473;28;1240;-76
2023/01/19 04:32:47;;;;;;;;;;;3.10;99.90;;;;;;5086809;28;1065;-77
2023/01/19 04:35:27;;;;;;;;;;;3.20;99.90;;;;;;5085855;28;1959;-74
2023/01/19 04:37:56;;;;;;;;;;;3.10;99.90;;;;;;5079923;28;1763;-74
2023/01/19 04:40:31;;;;;;;;;;;3.30;99.90;;;;;;5086946;28;1060;-75
2023/01/19 04:42:58;;;;;;;;;;;3.10;99.90;;;;;;5083065;28;1072;-73
2023/01/19 04:45:27;;;;;;;;;;;3.10;99.90;;;;;;5089159;28;1227;-75
2023/01/19 04:47:54;;;;;;;;;;;3.20;99.90;;;;;;5080078;28;1044;-75
2023/01/19 04:50:22;;;;;;;;;;;3.20;99.90;;;;;;5091960;28;1079;-75
2023/01/19 04:52:50;;;;;;;;;;;3.20;99.90;;;;;;5077590;28;1944;-82
2023/01/19 04:55:19;;;;;;;;;;;3.20;99.90;;;;;;5080872;28;1943;-78
2023/01/19 04:57:47;;;;;;;;;;;3.30;99.90;;;;;;5082206;28;975;-77
2023/01/19 05:00:16;;;;;;;;;;;3.40;99.90;;;;;;5078817;28;1511;-81
2023/01/19 05:02:44;;;;;;;;;;;3.50;99.90;;;;;;5086478;28;1045;-79
2023/01/19 05:05:22;;;;;;;;;;;3.40;99.90;;;;;;5083607;28;1346;-80
2023/01/19 05:07:50;;;;;;;;;;;3.40;99.90;;;;;;5088277;28;1530;-81
2023/01/19 05:10:19;;;;;;;;;;;3.40;99.90;;;;;;5090284;28;1593;-79
2023/01/19 05:12:47;;;;;;;;;;;3.30;99.90;;;;;;5077211;28;1566;-81
2023/01/19 05:15:15;;;;;;;;;;;3.40;99.90;;;;;;5067197;28;1989;-75
2023/01/19 05:17:51;;;;;;;;;;;3.40;99.90;;;;;;5064011;28;1039;-75
2023/01/19 05:20:19;;;;;;;;;;;3.30;99.90;;;;;;5060974;28;1072;-75
2023/01/19 05:22:51;;;;;;;;;;;3.20;99.90;;;;;;5066631;28;989;-75
2023/01/19 05:25:20;;;;;;;;;;;3.20;99.90;;;;;;5052294;28;1808;-74
2023/01/19 05:27:48;;;;;;;;;;;3.30;99.90;;;;;;5058982;28;2191;-75
2023/01/19 05:30:18;;;;;;;;;;;3.20;99.90;;;;;;5057213;28;2076;-74
2023/01/19 05:32:45;;;;;;;;;;;3.20;99.90;;;;;;5058366;28;1970;-74
2023/01/19 05:35:15;;;;;;;;;;;3.10;99.90;;;;;;5056196;28;1989;-74
2023/01/19 05:37:44;;;;;;;;;;;3.10;99.90;;;;;;5067188;28;1126;-74
2023/01/19 05:40:20;;;;;;;;;;;3.10;99.90;;;;;;5067122;28;1083;-74
2023/01/19 05:42:48;;;;;;;;;;;3.10;99.90;;;;;;5059527;28;1848;-74
2023/01/19 05:45:22;;;;;;;;;;;3.20;99.90;;;;;;5058954;28;2003;-75
2023/01/19 05:47:50;;;;;;;;;;;3.20;99.90;;;;;;5058653;28;2022;-74
2023/01/19 05:50:17;;;;;;;;;;;3.20;99.90;;;;;;5059908;28;2009;-74
2023/01/19 05:52:45;;;;;;;;;;;3.20;99.90;;;;;;5056471;28;1982;-75
2023/01/19 05:55:13;;;;;;;;;;;3.20;99.90;;;;;;5054172;28;1898;-75
2023/01/19 05:57:43;;;;;;;;;;;3.30;99.90;;;;;;5068552;28;1341;-76
2023/01/19 06:00:13;;;;;;;;;;;3.40;99.90;;;;;;5068483;28;1040;-77
2023/01/19 06:02:40;;;;;;;;;;;3.10;99.90;;;;;;5060650;28;1919;-75
2023/01/19 06:05:14;;;;;;;;;;;3.20;99.90;;;;;;5068137;28;1441;-76
2023/01/19 06:07:42;;;;;;;;;;;3.30;99.90;;;;;;5062960;28;1357;-76
2023/01/19 06:10:10;;;;;;;;;;;3.20;99.90;;;;;;5068239;28;1182;-76
2023/01/19 06:12:40;;;;;;;;;;;3.20;99.90;;;;;;5063029;28;1558;-76
2023/01/19 06:15:09;;;;;;;;;;;3.10;99.90;;;;;;5066384;28;1907;-76
2023/01/19 06:17:36;;;;;;;;;;;3.20;99.90;;;;;;5066817;28;1120;-76
2023/01/19 06:20:05;;;;;;;;;;;3.10;99.90;;;;;;5066969;28;1112;-76
2023/01/19 06:22:33;;;;;;;;;;;3.00;99.90;;;;;;5066988;28;981;-76
2023/01/19 06:25:01;;;;;;;;;;;3.00;99.90;;;;;;5064512;28;1952;-75
2023/01/19 06:27:28;;;;;;;;;;;3.10;99.90;;;;;;5051247;28;1895;-75
2023/01/19 06:29:56;;;;;;;;;;;3.00;99.90;;;;;;5060846;28;2018;-76
2023/01/19 06:32:25;;;;;;;;;;;3.20;99.90;;;;;;5057152;28;1994;-75
2023/01/19 06:34:53;;;;;;;;;;;3.20;99.90;;;;;;5053779;28;2177;-71
2023/01/19 06:37:21;;;;;;;;;;;3.00;99.90;;;;;;5064570;28;2178;-73
2023/01/19 06:39:48;;;;;;;;;;;3.10;99.90;;;;;;5065349;28;1100;-72
2023/01/19 06:42:16;;;;;;;;;;;3.10;99.90;;;;;;5069711;28;950;-78
2023/01/19 06:44:46;;;;;;;;;;;3.80;99.90;;;;;;5060753;28;1345;-78
2023/01/19 06:47:14;;;;;;;;;;;4.30;99.90;;;;;;5065399;28;1078;-78
2023/01/19 06:49:44;;;;;;;;;;;4.30;99.90;;;;;;5064647;28;1075;-78
2023/01/19 06:52:14;;;;;;;;;;;4.30;99.90;;;;;;5065393;28;1807;-78
2023/01/19 06:54:43;;;;;;;;;;;4.30;99.90;;;;;;5070106;28;1982;-78
2023/01/19 06:57:12;;;;;;;;;;;4.10;99.90;;;;;;5073574;28;1315;-78
2023/01/19 06:59:39;;;;;;;;;;;4.00;99.90;;;;;;5059698;28;1959;-75
2023/01/19 07:02:09;;;;;;;;;;;4.60;99.90;;;;;;5055743;28;1935;-75
2023/01/19 07:04:56;;;;;;;;;;;4.20;99.90;;;;;;5053156;28;1994;-76
2023/01/19 07:07:24;;;;;;;;;;;4.40;99.90;;;;;;5066655;28;1452;-76
2023/01/19 07:09:51;;;;;;;;;;;4.50;99.90;;;;;;5067486;28;1206;-76
2023/01/19 07:12:20;;;;;;;;;;;4.40;99.90;;;;;;5066896;28;1645;-76
2023/01/19 07:14:48;;;;;;;;;;;4.20;99.90;;;;;;5063626;28;1963;-72
2023/01/19 07:17:16;;;;;;;;;;;4.10;99.90;;;;;;5048738;28;2043;-72
2023/01/19 07:19:43;;;;;;;;;;;3.80;99.90;;;;;;5043552;28;2015;-72
2023/01/19 07:22:12;;;;;;;;;;;3.60;99.90;;;;;;5058696;28;2065;-72
2023/01/19 07:24:40;;;;;;;;;;;3.50;99.90;;;;;;5066778;28;1302;-72
2023/01/19 07:27:10;;;;;;;;;;;3.50;99.90;;;;;;5064892;28;1087;-74
2023/01/19 07:29:38;;;;;;;;;;;3.40;99.90;;;;;;5070330;28;985;-73
2023/01/19 07:32:09;;;;;;;;;;;3.60;99.90;;;;;;5060965;28;958;-73
2023/01/19 07:34:37;;;;;;;;;;;3.30;99.90;;;;;;5061898;28;1445;-72
2023/01/19 07:37:04;;;;;;;;;;;3.40;99.90;;;;;;5063703;28;1913;-73
2023/01/19 07:39:35;;;;;;;;;;;3.40;99.90;;;;;;5062750;28;993;-72
2023/01/19 07:42:03;;;;;;;;;;;3.40;99.90;;;;;;5062317;28;1371;-72
2023/01/19 07:44:31;;;;;;;;;;;3.40;99.90;;;;;;5067166;28;1447;-72
2023/01/19 07:46:59;;;;;;;;;;;3.30;99.90;;;;;;5062360;28;1939;-72
2023/01/19 07:49:26;;;;;;;;;;;3.20;99.90;;;;;;5067662;28;1180;-72
2023/01/19 07:51:55;;;;;;;;;;;3.30;99.90;;;;;;5067278;28;1998;-73
2023/01/19 07:54:23;;;;;;;;;;;3.30;99.90;;;;;;5063712;28;1393;-72
2023/01/19 07:56:54;;;;;;;;;;;3.40;99.90;;;;;;5066804;28;1906;-72
2023/01/19 07:59:22;;;;;;;;;;;3.40;99.90;;;;;;5064382;28;1093;-71
2023/01/19 08:01:50;;;;;;;;;;;3.40;99.90;;;;;;5063945;28;1486;-72
2023/01/19 08:04:19;;;;;;;;;;;3.50;99.90;;;;;;5055614;28;1611;-73
2023/01/19 08:06:47;;;;;;;;;;;3.30;99.90;;;;;;5061975;28;1054;-74
2023/01/19 08:09:14;;;;;;;;;;;3.30;99.90;;;;;;5065541;28;1378;-73
2023/01/19 08:11:42;;;;;;;;;;;3.30;99.90;;;;;;5061042;28;1148;-72
2023/01/19 08:14:12;;;;;;;;;;;3.40;99.90;;;;;;5065175;28;1879;-73
2023/01/19 08:16:40;;;;;;;;;;;3.40;99.90;;;;;;5068409;28;1906;-73
2023/01/19 08:19:08;;;;;;;;;;;3.50;99.90;;;;;;5060778;28;1600;-73
2023/01/19 08:21:37;;;;;;;;;;;3.50;99.90;;;;;;5057295;28;1797;-75
2023/01/19 08:24:05;;;;;;;;;;;3.40;99.90;;;;;;5063596;28;1938;-74
2023/01/19 08:26:34;;;;;;;;;;;3.40;99.90;;;;;;5051535;28;1956;-75
2023/01/19 08:29:02;;;;;;;;;;;3.50;99.90;;;;;;5065499;28;1196;-74
2023/01/19 08:31:31;;;;;;;;;;;3.40;99.90;;;;;;5061964;28;1100;-73
2023/01/19 08:33:59;;;;;;;;;;;3.40;99.90;;;;;;5064973;28;1085;-73
2023/01/19 08:36:27;;;;;;;;;;;3.40;99.90;;;;;;5059029;28;1922;-73
2023/01/19 08:38:54;;;;;;;;;;;3.60;99.90;;;;;;5072457;28;1058;-74
2023/01/19 08:41:22;;;;;;;;;;;3.50;99.90;;;;;;5070533;28;1056;-74
2023/01/19 08:43:50;;;;;;;;;;;3.60;99.90;;;;;;5063574;28;1124;-74
2023/01/19 08:46:20;;;;;;;;;;;3.60;99.90;;;;;;5065019;28;1354;-74
2023/01/19 08:48:49;;;;;;;;;;;3.70;99.90;;;;;;5064202;28;1111;-74
2023/01/19 08:51:17;;;;;;;;;;;3.60;99.90;;;;;;5064707;28;1029;-73
2023/01/19 08:53:46;;;;;;;;;;;3.60;99.90;;;;;;5060857;28;1050;-74
2023/01/19 08:56:13;;;;;;;;;;;3.70;99.90;;;;;;5065508;28;1995;-73
2023/01/19 08:58:41;;;;;;;;;;;3.60;99.90;;;;;;5062908;28;1149;-74
2023/01/19 09:01:09;;;;;;;;;;;3.70;99.90;;;;;;5066360;28;1658;-73
2023/01/19 09:03:37;;;;;;;;;;;3.70;99.90;;;;;;5064850;28;1204;-74
2023/01/19 09:06:06;;;;;;;;;;;3.60;99.90;;;;;;5060958;28;1270;-74
2023/01/19 09:08:34;;;;;;;;;;;3.70;99.90;;;;;;5064076;28;984;-73
2023/01/19 09:11:02;;;;;;;;;;;3.80;99.90;;;;;;5064820;28;1516;-74
2023/01/19 09:13:29;;;;;;;;;;;3.90;99.90;;;;;;5064122;28;1630;-74
2023/01/19 09:15:57;;;;;;;;;;;4.00;99.90;;;;;;5068898;28;1914;-74
2023/01/19 09:18:25;;;;;;;;;;;4.00;99.90;;;;;;5064352;28;981;-74
2023/01/19 09:20:53;;;;;;;;;;;4.00;99.90;;;;;;5068950;28;1052;-74
2023/01/19 09:23:22;;;;;;;;;;;3.90;99.90;;;;;;5063743;28;1091;-74
2023/01/19 09:25:55;;;;;;;;;;;3.90;99.90;;;;;;5062535;28;1230;-76
2023/01/19 09:28:23;;;;;;;;;;;4.10;99.90;;;;;;5063734;28;1039;-73
2023/01/19 09:30:50;;;;;;;;;;;3.80;99.90;;;;;;5066392;28;977;-74
2023/01/19 09:33:19;;;;;;;;;;;3.70;99.90;;;;;;5062269;28;1507;-74
2023/01/19 09:35:47;;;;;;;;;;;3.70;99.90;;;;;;5059953;28;1398;-74
2023/01/19 09:38:15;;;;;;;;;;;3.70;99.90;;;;;;5063809;28;1913;-74
2023/01/19 09:40:47;;;;;;;;;;;3.70;99.90;;;;;;5061837;28;951;-74
2023/01/19 09:43:18;;;;;;;;;;;3.70;99.90;;;;;;5061780;28;1013;-75
2023/01/19 09:45:48;;;;;;;;;;;3.70;99.90;;;;;;5062932;28;1336;-74
2023/01/19 09:48:25;;;;;;;;;;;3.70;99.90;;;;;;5063412;28;1504;-74
2023/01/19 09:50:54;;;;;;;;;;;3.70;99.90;;;;;;5065601;28;1100;-74
2023/01/19 09:53:24;;;;;;;;;;;3.80;99.90;;;;;;5059701;28;1001;-74
2023/01/19 09:55:53;;;;;;;;;;;3.90;99.90;;;;;;5065084;28;1398;-75
2023/01/19 09:58:22;;;;;;;;;;;4.00;99.90;;;;;;5067434;28;1984;-74
2023/01/19 10:00:51;;;;;;;;;;;4.10;99.90;;;;;;5062763;28;807;-75
2023/01/19 10:03:20;;;;;;;;;;;4.10;99.90;;;;;;5063170;28;1197;-75
2023/01/19 10:05:49;;;;;;;;;;;4.10;99.90;;;;;;5062702;28;1379;-73
2023/01/19 10:08:19;;;;;;;;;;;4.10;99.90;;;;;;5061991;28;1056;-72
2023/01/19 10:10:48;;;;;;;;;;;4.00;99.90;;;;;;5062775;28;1653;-73
2023/01/19 10:13:33;;;;;;;;;;;4.20;99.90;;;;;;5061950;28;1089;-73
2023/01/19 10:16:07;;;;;;;;;;;4.30;99.90;;;;;;5060938;28;1362;-73
2023/01/19 10:18:44;;;;;;;;;;;4.30;99.90;;;;;;5061649;28;1985;-73
2023/01/19 10:21:14;;;;;;;;;;;4.20;99.90;;;;;;5065767;28;1184;-73
2023/01/19 10:23:44;;;;;;;;;;;4.20;99.90;;;;;;5071494;28;1020;-73
2023/01/19 10:26:15;;;;;;;;;;;4.20;99.90;;;;;;5064342;28;1310;-73
2023/01/19 10:28:48;;;;;;;;;;;4.20;99.90;;;;;;5058886;28;1509;-73
2023/01/19 10:31:16;;;;;;;;;;;4.20;99.90;;;;;;5060773;28;1583;-73
2023/01/19 10:33:52;;;;;;;;;;;4.40;99.90;;;;;;5059469;28;1731;-74
2023/01/19 10:36:20;;;;;;;;;;;4.50;99.90;;;;;;5061262;28;1934;-74
2023/01/19 10:38:52;;;;;;;;;;;4.50;99.90;;;;;;5064354;28;1909;-71
2023/01/19 10:41:25;;;;;;;;;;;4.40;99.90;;;;;;5060998;28;1530;-72
2023/01/19 10:44:00;;;;;;;;;;;4.40;99.90;;;;;;5063108;28;1280;-73
2023/01/19 10:46:34;;;;;;;;;;;4.40;99.90;;;;;;5061050;28;1337;-75
2023/01/19 10:49:01;;;;;;;;;;;4.40;99.90;;;;;;5063398;28;1199;-72
2023/01/19 10:51:29;;;;;;;;;;;4.50;99.90;;;;;;5061693;28;1276;-72
2023/01/19 10:54:02;;;;;;;;;;;4.60;99.90;;;;;;5065714;28;1119;-74
2023/01/19 10:56:31;;;;;;;;;;;4.40;99.90;;;;;;5071751;28;1377;-71
2023/01/19 10:59:02;;;;;;;;;;;4.30;99.90;;;;;;5064446;28;1978;-73
2023/01/19 11:01:30;;;;;;;;;;;4.30;99.90;;;;;;5061755;28;1286;-73
2023/01/19 11:04:04;;;;;;;;;;;4.30;99.90;;;;;;5064011;28;1751;-72
2023/01/19 11:06:33;;;;;;;;;;;4.50;99.90;;;;;;5064104;28;1673;-73
2023/01/19 11:09:11;;;;;;;;;;;4.30;99.90;;;;;;5059466;28;1057;-73
2023/01/19 11:11:44;;;;;;;;;;;4.40;99.90;;;;;;5064465;28;1728;-74
2023/01/19 11:14:14;;;;;;;;;;;4.50;99.90;;;;;;5063354;28;1269;-73
2023/01/19 11:16:46;;;;;;;;;;;4.30;99.90;;;;;;5063627;28;1069;-74
2023/01/19 11:19:18;;;;;;;;;;;4.20;99.90;;;;;;5061075;28;1902;-73
2023/01/19 11:21:46;;;;;;;;;;;4.30;99.90;;;;;;5063567;28;1571;-73
2023/01/19 11:24:15;;;;;;;;;;;4.30;99.90;;;;;;5062959;28;1500;-72
2023/01/19 11:26:45;;;;;;;;;;;4.40;99.90;;;;;;5059143;28;1589;-75
2023/01/19 11:29:19;;;;;;;;;;;4.50;99.90;;;;;;5060495;28;1079;-73
2023/01/19 11:31:47;;;;;;;;;;;4.40;99.90;;;;;;5061650;28;1253;-74
2023/01/19 11:34:22;;;;;;;;;;;4.50;99.90;;;;;;5067224;28;1343;-71
2023/01/19 11:36:55;;;;;;;;;;;4.40;99.90;;;;;;5061433;28;1503;-74
2023/01/19 11:39:24;;;;;;;;;;;4.30;99.90;;;;;;5063056;28;1918;-74
2023/01/19 11:41:53;;;;;;;;;;;4.30;99.90;;;;;;5068362;28;1034;-73
2023/01/19 11:44:23;;;;;;;;;;;4.50;99.90;;;;;;5067373;28;1359;-73
2023/01/19 11:46:53;;;;;;;;;;;4.50;99.90;;;;;;5066626;28;1472;-74
2023/01/19 11:49:23;;;;;;;;;;;4.40;99.90;;;;;;5064516;28;984;-74
2023/01/19 11:51:55;;;;;;;;;;;4.50;99.90;;;;;;5069152;28;1045;-72
2023/01/19 11:54:28;;;;;;;;;;;4.40;99.90;;;;;;5067075;28;1311;-73
2023/01/19 11:56:58;;;;;;;;;;;4.40;99.90;;;;;;5060913;28;1056;-73
2023/01/19 11:59:27;;;;;;;;;;;4.30;99.90;;;;;;5060286;28;1917;-72
2023/01/19 12:01:57;;;;;;;;;;;4.30;99.90;;;;;;5066156;28;1045;-72
2023/01/19 12:04:26;;;;;;;;;;;4.40;99.90;;;;;;5064591;28;1275;-73
2023/01/19 12:06:55;;;;;;;;;;;4.30;99.90;;;;;;5065287;28;1816;-73
2023/01/19 12:09:24;;;;;;;;;;;4.40;99.90;;;;;;5062747;28;1088;-73
2023/01/19 12:11:54;;;;;;;;;;;4.40;99.90;;;;;;5066776;28;1092;-74
2023/01/19 12:14:25;;;;;;;;;;;4.50;99.90;;;;;;5062800;28;1300;-74
2023/01/19 12:16:56;;;;;;;;;;;4.70;99.90;;;;;;5063222;28;1084;-73
2023/01/19 12:19:26;;;;;;;;;;;4.80;99.90;;;;;;5064266;28;1902;-74
2023/01/19 12:21:54;;;;;;;;;;;4.70;99.90;;;;;;5071740;28;1171;-73
2023/01/19 12:24:25;;;;;;;;;;;4.70;99.90;;;;;;5058102;28;1334;-74
2023/01/19 12:26:53;;;;;;;;;;;4.70;99.90;;;;;;5065416;28;1018;-73
2023/01/19 12:29:22;;;;;;;;;;;4.70;99.90;;;;;;5066088;28;1037;-73
2023/01/19 12:32:10;;;;;;;;;;;4.60;99.90;;;;;;5067069;28;1402;-72
2023/01/19 12:34:43;;;;;;;;;;;4.60;99.90;;;;;;5066114;28;1585;-73
2023/01/19 12:37:26;;;;;;;;;;;4.80;99.90;;;;;;5063147;28;1045;-73
2023/01/19 12:39:54;;;;;;;;;;;4.70;99.90;;;;;;5062357;28;1987;-72
2023/01/19 12:42:22;;;;;;;;;;;4.80;99.90;;;;;;5062211;28;1349;-73
2023/01/19 12:44:53;;;;;;;;;;;4.70;99.90;;;;;;5060721;28;1264;-72
2023/01/19 12:47:23;;;;;;;;;;;4.80;99.90;;;;;;5070530;28;973;-73
2023/01/19 12:49:53;;;;;;;;;;;4.70;99.90;;;;;;5066869;28;1155;-72
2023/01/19 12:52:25;;;;;;;;;;;4.70;99.90;;;;;;5060101;28;1152;-73
2023/01/19 12:55:11;;;;;;;;;;;4.60;99.90;;;;;;5061101;28;2107;-72
2023/01/19 12:57:40;;;;;;;;;;;4.50;99.90;;;;;;5054206;28;1357;-73
2023/01/19 13:00:27;;;;;;;;;;;4.70;99.90;;;;;;5060908;28;1914;-73
2023/01/19 13:02:55;;;;;;;;;;;4.60;99.90;;;;;;5061866;28;988;-73
2023/01/19 13:05:43;;;;;;;;;;;4.60;99.90;;;;;;5063229;28;1477;-73
2023/01/19 13:08:16;;;;;;;;;;;4.60;99.90;;;;;;5061731;28;1256;-73
2023/01/19 13:11:17;;;;;;;;;;;4.60;99.90;;;;;;5062080;28;985;-73
2023/01/19 13:14:05;;;;;;;;;;;4.50;99.90;;;;;;5064446;28;1068;-72
2023/01/19 13:16:51;;;;;;;;;;;4.40;99.90;;;;;;5067363;28;1459;-74
2023/01/19 13:19:32;;;;;;;;;;;4.50;99.90;;;;;;5071202;28;1990;-74
2023/01/19 13:22:19;;;;;;;;;;;4.60;99.90;;;;;;5067903;28;1613;-73
2023/01/19 13:25:10;;;;;;;;;;;4.50;99.90;;;;;;5063857;28;1324;-73
2023/01/19 13:27:38;;;;;;;;;;;4.60;99.90;;;;;;5062828;28;1319;-71
2023/01/19 13:30:10;;;;;;;;;;;4.70;99.90;;;;;;5062631;28;1717;-72
2023/01/19 13:32:40;;;;;;;;;;;4.80;99.90;;;;;;5062160;28;1017;-72
2023/01/19 13:35:13;;;;;;;;;;;4.90;99.90;;;;;;5060907;28;1257;-71
2023/01/19 13:37:42;;;;;;;;;;;4.70;99.90;;;;;;5063921;28;1049;-72
2023/01/19 13:40:18;;;;;;;;;;;4.80;99.90;;;;;;5062014;28;1910;-71
2023/01/19 13:42:46;;;;;;;;;;;4.90;99.90;;;;;;5061978;28;1272;-77
2023/01/19 13:45:23;;;;;;;;;;;4.90;99.90;;;;;;5060886;28;1288;-76
2023/01/19 13:47:52;;;;;;;;;;;4.90;99.90;;;;;;5060608;28;1495;-76
2023/01/19 13:50:22;;;;;;;;;;;4.70;99.90;;;;;;5066696;28;1048;-76
2023/01/19 13:52:52;;;;;;;;;;;4.90;99.90;;;;;;5062314;28;1538;-76
2023/01/19 13:55:22;;;;;;;;;;;4.90;99.90;;;;;;5060470;28;1291;-75
2023/01/19 13:57:50;;;;;;;;;;;4.90;99.90;;;;;;5071368;28;1680;-76
2023/01/19 14:00:20;;;;;;;;;;;4.80;99.90;;;;;;5066911;28;1985;-75
2023/01/19 14:02:52;;;;;;;;;;;4.80;99.90;;;;;;5063373;28;1736;-77
2023/01/19 14:05:22;;;;;;;;;;;4.70;99.90;;;;;;5057071;28;1713;-76
2023/01/19 14:07:59;;;;;;;;;;;4.70;99.90;;;;;;5065974;28;1681;-76
2023/01/19 14:10:30;;;;;;;;;;;4.70;99.90;;;;;;5066330;28;1101;-76
2023/01/19 14:12:58;;;;;;;;;;;4.70;99.90;;;;;;5073446;28;1083;-76
2023/01/19 14:15:26;;;;;;;;;;;4.70;99.90;;;;;;5072496;28;1329;-76
2023/01/19 14:18:11;;;;;;;;;;;4.70;99.90;;;;;;5072286;28;1062;-76
2023/01/19 14:20:39;;;;;;;;;;;4.80;99.90;;;;;;5066484;28;2042;-74
2023/01/19 14:23:27;;;;;;;;;;;4.70;99.90;;;;;;5067980;28;1091;-76
2023/01/19 14:25:57;;;;;;;;;;;4.80;99.90;;;;;;5062808;28;1357;-77
2023/01/19 14:28:28;;;;;;;;;;;4.90;99.90;;;;;;5064734;28;1329;-77
2023/01/19 14:30:56;;;;;;;;;;;4.90;99.90;;;;;;5064917;28;1591;-76
2023/01/19 14:33:34;;;;;;;;;;;5.00;99.90;;;;;;5069305;28;988;-76
2023/01/19 14:36:09;;;;;;;;;;;5.20;99.90;;;;;;5064447;28;1420;-76
2023/01/19 14:38:38;;;;;;;;;;;5.00;99.90;;;;;;5064897;28;985;-73
2023/01/19 14:41:07;;;;;;;;;;;5.10;99.90;;;;;;5056295;28;1985;-72
2023/01/19 14:43:35;;;;;;;;;;;5.10;99.90;;;;;;5062317;28;1168;-71
2023/01/19 14:46:03;;;;;;;;;;;5.10;99.90;;;;;;5070772;28;1358;-73
2023/01/19 14:48:31;;;;;;;;;;;5.10;99.90;;;;;;5067317;28;1101;-73
2023/01/19 14:51:03;;;;;;;;;;;5.00;99.90;;;;;;5068194;28;1084;-74
2023/01/19 14:53:34;;;;;;;;;;;5.00;99.90;;;;;;5066496;28;1263;-74
2023/01/19 14:56:03;;;;;;;;;;;5.20;99.90;;;;;;5064990;28;1994;-74
2023/01/19 14:58:33;;;;;;;;;;;5.30;99.90;;;;;;5064751;28;1092;-74
2023/01/19 15:01:01;;;;;;;;;;;5.50;99.90;;;;;;5067293;28;1981;-75
2023/01/19 15:03:30;;;;;;;;;;;5.40;99.90;;;;;;5065554;28;1073;-74
2023/01/19 15:06:13;;;;;;;;;;;5.30;99.90;;;;;;5063042;28;1303;-74
2023/01/19 15:08:40;;;;;;;;;;;5.30;99.90;;;;;;5065576;28;997;-75
2023/01/19 15:11:09;;;;;;;;;;;5.10;99.90;;;;;;5066004;28;1073;-74
2023/01/19 15:13:39;;;;;;;;;;;5.00;99.90;;;;;;5067401;28;1362;-73